Weather at Stockholm Skavsta Airport

Public forecast

Using degrees Celsius for public forecast. Weather courtesy of forecast.io.

Current aviation weather report (METAR) for Stockholm Skavsta Airport

Retrieved 2021/03/07 01:20 UTC (0 seconds ago):

ESKN 070120Z 31011KT CAVOK 01/M07 Q1007 R26/19//95

Aviation forecast (TAF) for Stockholm Skavsta Airport

Retrieved 2021-03-07 00:00 UTC (1 hour ago):

TAF ESKN 062330Z 0700/0724 30010G20KT CAVOK BECMG 0701/0703 33015G30KT BECMG 0715/0718 34010G20KT